sensor_id;sensor_type;location;lat;lon;timestamp;pressure;altitude;pressure_sealevel;temperature;humidity
38022;BME280;23832;43.216;27.946;2023-04-25T00:00:41;100302.34;;;16.62;100.00
38022;BME280;23832;43.216;27.946;2023-04-25T00:02:43;100296.44;;;16.60;100.00
38022;BME280;23832;43.216;27.946;2023-04-25T00:04:46;100301.59;;;16.36;100.00
38022;BME280;23832;43.216;27.946;2023-04-25T00:06:48;100289.84;;;16.44;100.00
38022;BME280;23832;43.216;27.946;2023-04-25T00:08:54;100289.50;;;16.59;100.00
38022;BME280;23832;43.216;27.946;2023-04-25T00:10:56;100281.66;;;16.45;100.00
38022;BME280;23832;43.216;27.946;2023-04-25T00:12:58;100275.38;;;16.40;100.00
38022;BME280;23832;43.216;27.946;2023-04-25T00:15:02;100280.38;;;16.30;100.00
38022;BME280;23832;43.216;27.946;2023-04-25T00:17:04;100283.69;;;16.25;100.00
38022;BME280;23832;43.216;27.946;2023-04-25T00:19:06;100284.88;;;16.29;100.00
38022;BME280;23832;43.216;27.946;2023-04-25T00:21:08;100281.06;;;16.62;100.00
38022;BME280;23832;43.216;27.946;2023-04-25T00:23:10;100276.13;;;16.47;100.00
38022;BME280;23832;43.216;27.946;2023-04-25T00:25:14;100274.09;;;16.42;100.00
38022;BME280;23832;43.216;27.946;2023-04-25T00:27:15;100269.31;;;16.51;100.00
38022;BME280;23832;43.216;27.946;2023-04-25T00:29:17;100268.72;;;16.67;100.00
38022;BME280;23832;43.216;27.946;2023-04-25T00:31:19;100265.72;;;16.64;100.00
38022;BME280;23832;43.216;27.946;2023-04-25T00:33:21;100259.50;;;16.70;100.00
38022;BME280;23832;43.216;27.946;2023-04-25T00:35:23;100254.44;;;16.62;100.00
38022;BME280;23832;43.216;27.946;2023-04-25T00:37:25;100285.44;;;16.56;100.00
38022;BME280;23832;43.216;27.946;2023-04-25T00:39:27;100252.50;;;16.32;100.00
38022;BME280;23832;43.216;27.946;2023-04-25T00:41:30;100253.72;;;16.36;100.00
38022;BME280;23832;43.216;27.946;2023-04-25T00:43:32;100250.94;;;16.25;100.00
38022;BME280;23832;43.216;27.946;2023-04-25T00:45:38;100255.41;;;16.31;100.00
38022;BME280;23832;43.216;27.946;2023-04-25T00:47:40;100249.38;;;16.17;100.00
38022;BME280;23832;43.216;27.946;2023-04-25T00:49:42;100247.78;;;16.34;100.00
38022;BME280;23832;43.216;27.946;2023-04-25T00:51:44;100243.00;;;16.00;100.00
38022;BME280;23832;43.216;27.946;2023-04-25T00:53:46;100199.03;;;15.72;100.00
38022;BME280;23832;43.216;27.946;2023-04-25T00:55:49;100247.69;;;16.23;100.00
38022;BME280;23832;43.216;27.946;2023-04-25T00:57:53;100242.81;;;16.20;100.00
38022;BME280;23832;43.216;27.946;2023-04-25T00:59:55;100241.13;;;16.25;100.00
38022;BME280;23832;43.216;27.946;2023-04-25T01:01:57;100231.38;;;16.19;100.00
38022;BME280;23832;43.216;27.946;2023-04-25T01:03:59;100233.00;;;16.20;100.00
38022;BME280;23832;43.216;27.946;2023-04-25T01:06:02;100237.06;;;16.23;100.00
38022;BME280;23832;43.216;27.946;2023-04-25T01:08:04;100237.38;;;16.33;100.00
38022;BME280;23832;43.216;27.946;2023-04-25T01:10:06;100225.38;;;16.24;100.00
38022;BME280;23832;43.216;27.946;2023-04-25T01:12:08;100229.66;;;16.25;100.00
38022;BME280;23832;43.216;27.946;2023-04-25T01:14:12;100223.25;;;16.32;100.00
38022;BME280;23832;43.216;27.946;2023-04-25T01:16:14;100227.31;;;16.35;100.00
38022;BME280;23832;43.216;27.946;2023-04-25T01:18:16;100222.22;;;16.33;100.00
38022;BME280;23832;43.216;27.946;2023-04-25T01:20:17;100217.34;;;16.30;100.00
38022;BME280;23832;43.216;27.946;2023-04-25T01:22:21;100213.06;;;16.29;100.00
38022;BME280;23832;43.216;27.946;2023-04-25T01:24:23;100214.91;;;16.29;100.00
38022;BME280;23832;43.216;27.946;2023-04-25T01:26:26;100216.91;;;16.33;100.00
38022;BME280;23832;43.216;27.946;2023-04-25T01:28:27;100212.63;;;16.51;100.00
38022;BME280;23832;43.216;27.946;2023-04-25T01:30:29;100214.34;;;16.45;100.00
38022;BME280;23832;43.216;27.946;2023-04-25T01:32:31;100209.06;;;16.38;100.00
38022;BME280;23832;43.216;27.946;2023-04-25T01:34:38;100209.72;;;16.15;100.00
38022;BME280;23832;43.216;27.946;2023-04-25T01:36:39;100207.72;;;16.11;100.00
38022;BME280;23832;43.216;27.946;2023-04-25T01:38:43;100210.53;;;16.34;100.00
38022;BME280;23832;43.216;27.946;2023-04-25T01:40:47;100205.53;;;16.44;100.00
38022;BME280;23832;43.216;27.946;2023-04-25T01:42:51;100196.72;;;16.62;100.00
38022;BME280;23832;43.216;27.946;2023-04-25T01:44:53;100196.94;;;16.24;100.00
38022;BME280;23832;43.216;27.946;2023-04-25T01:46:55;100207.22;;;16.21;100.00
38022;BME280;23832;43.216;27.946;2023-04-25T01:48:57;100197.69;;;16.31;100.00
38022;BME280;23832;43.216;27.946;2023-04-25T01:50:59;100189.69;;;16.13;100.00
38022;BME280;23832;43.216;27.946;2023-04-25T01:53:01;100190.16;;;16.28;100.00
38022;BME280;23832;43.216;27.946;2023-04-25T01:55:05;100181.38;;;15.84;100.00
38022;BME280;23832;43.216;27.946;2023-04-25T01:57:07;100182.25;;;15.78;100.00
38022;BME280;23832;43.216;27.946;2023-04-25T01:59:09;100178.84;;;15.89;100.00
38022;BME280;23832;43.216;27.946;2023-04-25T02:01:10;100171.25;;;16.18;100.00
38022;BME280;23832;43.216;27.946;2023-04-25T02:03:12;100169.75;;;16.40;100.00
38022;BME280;23832;43.216;27.946;2023-04-25T02:05:14;100177.22;;;16.50;100.00
38022;BME280;23832;43.216;27.946;2023-04-25T02:07:15;100164.22;;;16.42;100.00
38022;BME280;23832;43.216;27.946;2023-04-25T02:09:18;100159.19;;;16.34;100.00
38022;BME280;23832;43.216;27.946;2023-04-25T02:11:21;100158.13;;;16.16;100.00
38022;BME280;23832;43.216;27.946;2023-04-25T02:13:23;100155.28;;;16.18;100.00
38022;BME280;23832;43.216;27.946;2023-04-25T02:15:25;100149.50;;;16.21;100.00
38022;BME280;23832;43.216;27.946;2023-04-25T02:17:27;100158.81;;;16.30;100.00
38022;BME280;23832;43.216;27.946;2023-04-25T02:19:29;100158.75;;;16.37;100.00
38022;BME280;23832;43.216;27.946;2023-04-25T02:21:31;100152.53;;;16.43;100.00
38022;BME280;23832;43.216;27.946;2023-04-25T02:23:32;100162.88;;;16.33;100.00
38022;BME280;23832;43.216;27.946;2023-04-25T02:25:34;100161.09;;;16.63;100.00
38022;BME280;23832;43.216;27.946;2023-04-25T02:27:37;100146.69;;;16.53;100.00
38022;BME280;23832;43.216;27.946;2023-04-25T02:29:38;100150.03;;;16.48;100.00
38022;BME280;23832;43.216;27.946;2023-04-25T02:31:40;100142.50;;;16.27;100.00
38022;BME280;23832;43.216;27.946;2023-04-25T02:33:42;100136.06;;;16.16;100.00
38022;BME280;23832;43.216;27.946;2023-04-25T02:35:44;100134.44;;;16.15;100.00
38022;BME280;23832;43.216;27.946;2023-04-25T02:37:46;100136.81;;;16.23;100.00
38022;BME280;23832;43.216;27.946;2023-04-25T02:39:47;100134.19;;;16.35;100.00
38022;BME280;23832;43.216;27.946;2023-04-25T02:41:49;100128.97;;;16.28;100.00
38022;BME280;23832;43.216;27.946;2023-04-25T02:43:53;100125.72;;;16.26;100.00
38022;BME280;23832;43.216;27.946;2023-04-25T02:45:54;100129.13;;;16.15;100.00
38022;BME280;23832;43.216;27.946;2023-04-25T02:47:56;100120.78;;;16.11;100.00
38022;BME280;23832;43.216;27.946;2023-04-25T02:49:58;100128.06;;;15.98;100.00
38022;BME280;23832;43.216;27.946;2023-04-25T02:52:00;100127.34;;;15.91;100.00
38022;BME280;23832;43.216;27.946;2023-04-25T02:54:02;100126.28;;;15.73;100.00
38022;BME280;23832;43.216;27.946;2023-04-25T02:56:04;100130.06;;;15.84;100.00
38022;BME280;23832;43.216;27.946;2023-04-25T02:58:06;100124.00;;;15.95;100.00
38022;BME280;23832;43.216;27.946;2023-04-25T03:00:10;100113.22;;;16.08;100.00
38022;BME280;23832;43.216;27.946;2023-04-25T03:02:14;100120.53;;;16.31;100.00
38022;BME280;23832;43.216;27.946;2023-04-25T03:04:16;100120.25;;;16.39;100.00
38022;BME280;23832;43.216;27.946;2023-04-25T03:06:19;100121.03;;;16.58;100.00
38022;BME280;23832;43.216;27.946;2023-04-25T03:08:20;100117.75;;;16.44;100.00
38022;BME280;23832;43.216;27.946;2023-04-25T03:10:23;100113.91;;;16.22;100.00
38022;BME280;23832;43.216;27.946;2023-04-25T03:12:24;100115.16;;;16.20;100.00
38022;BME280;23832;43.216;27.946;2023-04-25T03:14:26;100108.72;;;16.45;100.00
38022;BME280;23832;43.216;27.946;2023-04-25T03:16:29;100112.91;;;16.35;100.00
38022;BME280;23832;43.216;27.946;2023-04-25T03:18:31;100115.69;;;16.28;100.00
38022;BME280;23832;43.216;27.946;2023-04-25T03:20:33;100114.34;;;16.19;100.00
38022;BME280;23832;43.216;27.946;2023-04-25T03:22:35;100113.31;;;16.20;100.00
38022;BME280;23832;43.216;27.946;2023-04-25T03:24:37;100104.94;;;16.35;100.00
38022;BME280;23832;43.216;27.946;2023-04-25T03:26:39;100108.81;;;16.39;100.00
38022;BME280;23832;43.216;27.946;2023-04-25T03:28:41;100110.06;;;16.36;100.00
38022;BME280;23832;43.216;27.946;2023-04-25T03:30:43;100113.59;;;16.30;100.00
38022;BME280;23832;43.216;27.946;2023-04-25T03:32:46;100108.75;;;16.09;100.00
38022;BME280;23832;43.216;27.946;2023-04-25T03:34:48;100106.38;;;16.19;100.00
38022;BME280;23832;43.216;27.946;2023-04-25T03:36:50;100103.47;;;16.39;100.00
38022;BME280;23832;43.216;27.946;2023-04-25T03:38:53;100105.84;;;16.47;100.00
38022;BME280;23832;43.216;27.946;2023-04-25T03:40:55;100096.59;;;16.50;100.00
38022;BME280;23832;43.216;27.946;2023-04-25T03:42:57;100101.03;;;16.37;100.00
38022;BME280;23832;43.216;27.946;2023-04-25T03:44:59;100094.25;;;16.23;100.00
38022;BME280;23832;43.216;27.946;2023-04-25T03:47:01;100096.69;;;16.06;100.00
38022;BME280;23832;43.216;27.946;2023-04-25T03:49:05;100094.19;;;16.11;100.00
38022;BME280;23832;43.216;27.946;2023-04-25T03:51:07;100091.47;;;16.18;100.00
38022;BME280;23832;43.216;27.946;2023-04-25T03:53:09;100099.84;;;16.33;100.00
38022;BME280;23832;43.216;27.946;2023-04-25T03:55:10;100107.09;;;16.44;100.00
38022;BME280;23832;43.216;27.946;2023-04-25T03:57:13;100102.88;;;16.55;100.00
38022;BME280;23832;43.216;27.946;2023-04-25T03:59:14;100100.81;;;16.39;100.00
38022;BME280;23832;43.216;27.946;2023-04-25T04:01:16;100098.75;;;16.41;100.00
38022;BME280;23832;43.216;27.946;2023-04-25T04:03:18;100084.66;;;16.52;100.00
38022;BME280;23832;43.216;27.946;2023-04-25T04:05:22;100105.84;;;16.47;100.00
38022;BME280;23832;43.216;27.946;2023-04-25T04:07:24;100100.50;;;16.47;100.00
38022;BME280;23832;43.216;27.946;2023-04-25T04:09:27;100095.47;;;16.57;100.00
38022;BME280;23832;43.216;27.946;2023-04-25T04:11:30;100091.97;;;16.75;100.00
38022;BME280;23832;43.216;27.946;2023-04-25T04:13:32;100094.63;;;16.75;100.00
38022;BME280;23832;43.216;27.946;2023-04-25T04:15:34;100095.72;;;16.86;100.00
38022;BME280;23832;43.216;27.946;2023-04-25T04:17:36;100080.63;;;16.80;100.00
38022;BME280;23832;43.216;27.946;2023-04-25T04:19:38;100092.72;;;16.94;100.00
38022;BME280;23832;43.216;27.946;2023-04-25T04:21:42;100089.53;;;17.15;100.00
38022;BME280;23832;43.216;27.946;2023-04-25T04:23:44;100086.53;;;17.23;100.00
38022;BME280;23832;43.216;27.946;2023-04-25T04:25:46;100082.19;;;17.52;100.00
38022;BME280;23832;43.216;27.946;2023-04-25T04:27:48;100085.53;;;17.83;100.00
38022;BME280;23832;43.216;27.946;2023-04-25T04:29:51;100087.81;;;18.03;100.00
38022;BME280;23832;43.216;27.946;2023-04-25T04:31:54;100082.25;;;18.04;100.00
38022;BME280;23832;43.216;27.946;2023-04-25T04:33:57;100083.31;;;18.03;100.00
38022;BME280;23832;43.216;27.946;2023-04-25T04:35:59;100073.22;;;17.94;100.00
38022;BME280;23832;43.216;27.946;2023-04-25T04:38:04;100080.53;;;17.98;100.00
38022;BME280;23832;43.216;27.946;2023-04-25T04:40:06;100080.22;;;17.83;100.00
38022;BME280;23832;43.216;27.946;2023-04-25T04:42:09;100071.50;;;17.87;100.00
38022;BME280;23832;43.216;27.946;2023-04-25T04:44:11;100081.34;;;17.99;100.00
38022;BME280;23832;43.216;27.946;2023-04-25T04:46:14;100085.88;;;18.38;100.00
38022;BME280;23832;43.216;27.946;2023-04-25T04:48:18;100077.44;;;18.30;100.00
38022;BME280;23832;43.216;27.946;2023-04-25T04:50:21;100075.25;;;18.55;100.00
38022;BME280;23832;43.216;27.946;2023-04-25T04:52:23;100072.78;;;18.94;100.00
38022;BME280;23832;43.216;27.946;2023-04-25T04:54:26;100071.03;;;19.16;100.00
38022;BME280;23832;43.216;27.946;2023-04-25T04:56:28;100063.41;;;19.42;100.00
38022;BME280;23832;43.216;27.946;2023-04-25T04:58:31;100065.84;;;19.26;100.00
38022;BME280;23832;43.216;27.946;2023-04-25T05:00:33;100069.00;;;19.07;100.00
38022;BME280;23832;43.216;27.946;2023-04-25T05:02:34;100063.16;;;19.26;100.00
38022;BME280;23832;43.216;27.946;2023-04-25T05:04:36;100067.16;;;18.50;100.00
38022;BME280;23832;43.216;27.946;2023-04-25T05:06:38;100065.34;;;18.67;100.00
38022;BME280;23832;43.216;27.946;2023-04-25T05:08:41;100067.59;;;19.38;100.00
38022;BME280;23832;43.216;27.946;2023-04-25T05:10:45;100064.34;;;18.85;100.00
38022;BME280;23832;43.216;27.946;2023-04-25T05:12:48;100053.59;;;19.14;100.00
38022;BME280;23832;43.216;27.946;2023-04-25T05:14:49;100052.03;;;19.68;100.00
38022;BME280;23832;43.216;27.946;2023-04-25T05:16:51;100052.44;;;19.99;100.00
38022;BME280;23832;43.216;27.946;2023-04-25T05:18:53;100059.19;;;19.84;100.00
38022;BME280;23832;43.216;27.946;2023-04-25T05:20:55;100059.16;;;19.79;100.00
38022;BME280;23832;43.216;27.946;2023-04-25T05:22:57;100060.25;;;19.83;100.00
38022;BME280;23832;43.216;27.946;2023-04-25T05:24:59;100047.81;;;20.16;100.00
38022;BME280;23832;43.216;27.946;2023-04-25T05:27:02;100056.38;;;20.13;100.00
38022;BME280;23832;43.216;27.946;2023-04-25T05:29:05;100057.22;;;20.19;100.00
38022;BME280;23832;43.216;27.946;2023-04-25T05:31:07;100055.34;;;20.19;100.00
38022;BME280;23832;43.216;27.946;2023-04-25T05:33:10;100045.78;;;20.23;100.00
38022;BME280;23832;43.216;27.946;2023-04-25T05:35:13;100041.41;;;20.66;100.00
38022;BME280;23832;43.216;27.946;2023-04-25T05:37:14;100042.97;;;21.21;100.00
38022;BME280;23832;43.216;27.946;2023-04-25T05:39:16;100043.56;;;21.28;96.16
38022;BME280;23832;43.216;27.946;2023-04-25T05:41:18;100039.09;;;21.39;90.34
38022;BME280;23832;43.216;27.946;2023-04-25T05:43:22;100039.72;;;22.08;80.64
38022;BME280;23832;43.216;27.946;2023-04-25T05:45:23;100032.78;;;21.65;85.29
38022;BME280;23832;43.216;27.946;2023-04-25T05:47:25;100029.53;;;21.53;89.36
38022;BME280;23832;43.216;27.946;2023-04-25T05:49:27;100030.16;;;20.64;100.00
38022;BME280;23832;43.216;27.946;2023-04-25T05:51:29;100030.59;;;21.20;91.24
38022;BME280;23832;43.216;27.946;2023-04-25T05:53:31;100024.00;;;20.95;91.93
38022;BME280;23832;43.216;27.946;2023-04-25T05:55:33;100024.41;;;20.77;96.81
38022;BME280;23832;43.216;27.946;2023-04-25T05:57:35;100020.25;;;21.29;87.10
38022;BME280;23832;43.216;27.946;2023-04-25T05:59:39;100014.81;;;20.86;90.48
38022;BME280;23832;43.216;27.946;2023-04-25T06:01:40;100018.25;;;20.50;95.74
38022;BME280;23832;43.216;27.946;2023-04-25T06:03:42;100020.19;;;21.61;83.43
38022;BME280;23832;43.216;27.946;2023-04-25T06:05:44;100020.72;;;21.58;81.01
38022;BME280;23832;43.216;27.946;2023-04-25T06:07:46;100025.63;;;20.96;87.77
38022;BME280;23832;43.216;27.946;2023-04-25T06:09:48;100013.84;;;20.97;91.74
38022;BME280;23832;43.216;27.946;2023-04-25T06:11:50;100023.94;;;21.65;83.53
38022;BME280;23832;43.216;27.946;2023-04-25T06:13:52;100014.47;;;22.04;75.74
38022;BME280;23832;43.216;27.946;2023-04-25T06:15:56;100019.16;;;21.67;76.87
38022;BME280;23832;43.216;27.946;2023-04-25T06:17:58;100013.56;;;21.31;78.96
38022;BME280;23832;43.216;27.946;2023-04-25T06:20:00;100003.44;;;20.69;82.55
38022;BME280;23832;43.216;27.946;2023-04-25T06:22:03;100007.88;;;20.58;86.27
38022;BME280;23832;43.216;27.946;2023-04-25T06:24:05;100007.56;;;20.55;88.51
38022;BME280;23832;43.216;27.946;2023-04-25T06:26:06;100014.22;;;20.79;84.86
38022;BME280;23832;43.216;27.946;2023-04-25T06:28:08;100008.44;;;21.30;77.06
38022;BME280;23832;43.216;27.946;2023-04-25T06:30:22;100008.44;;;20.92;79.22
38022;BME280;23832;43.216;27.946;2023-04-25T06:32:27;100008.28;;;21.09;79.83
38022;BME280;23832;43.216;27.946;2023-04-25T06:34:30;99999.09;;;21.32;77.56
38022;BME280;23832;43.216;27.946;2023-04-25T06:36:31;100006.53;;;21.25;78.46
38022;BME280;23832;43.216;27.946;2023-04-25T06:38:33;99998.13;;;21.53;77.23
38022;BME280;23832;43.216;27.946;2023-04-25T06:40:35;99998.09;;;22.06;73.50
38022;BME280;23832;43.216;27.946;2023-04-25T06:42:37;100001.50;;;21.81;73.37
38022;BME280;23832;43.216;27.946;2023-04-25T06:44:39;99999.78;;;21.65;75.79
38022;BME280;23832;43.216;27.946;2023-04-25T06:46:40;100001.63;;;21.49;75.54
38022;BME280;23832;43.216;27.946;2023-04-25T06:48:44;99990.72;;;21.66;73.71
38022;BME280;23832;43.216;27.946;2023-04-25T06:50:45;99990.19;;;21.74;74.93
38022;BME280;23832;43.216;27.946;2023-04-25T06:52:47;99995.59;;;21.79;71.99
38022;BME280;23832;43.216;27.946;2023-04-25T06:54:49;100000.81;;;21.48;74.20
38022;BME280;23832;43.216;27.946;2023-04-25T06:56:51;100002.88;;;21.89;72.35
38022;BME280;23832;43.216;27.946;2023-04-25T06:58:53;99999.59;;;22.70;67.85
38022;BME280;23832;43.216;27.946;2023-04-25T07:00:54;100003.59;;;22.72;67.48
38022;BME280;23832;43.216;27.946;2023-04-25T07:02:56;100001.16;;;23.27;64.80
38022;BME280;23832;43.216;27.946;2023-04-25T07:04:59;100004.38;;;23.49;62.44
38022;BME280;23832;43.216;27.946;2023-04-25T07:07:01;100006.59;;;23.01;62.63
38022;BME280;23832;43.216;27.946;2023-04-25T07:09:03;100000.66;;;23.30;61.70
38022;BME280;23832;43.216;27.946;2023-04-25T07:11:06;99993.56;;;23.54;59.72
38022;BME280;23832;43.216;27.946;2023-04-25T07:13:12;99985.91;;;23.97;57.99
38022;BME280;23832;43.216;27.946;2023-04-25T07:15:20;99985.56;;;24.92;55.39
38022;BME280;23832;43.216;27.946;2023-04-25T07:17:22;99986.69;;;25.15;53.84
38022;BME280;23832;43.216;27.946;2023-04-25T07:19:23;99988.41;;;25.06;53.89
38022;BME280;23832;43.216;27.946;2023-04-25T07:21:28;99976.53;;;25.07;52.73
38022;BME280;23832;43.216;27.946;2023-04-25T07:23:31;99972.25;;;25.78;50.79
38022;BME280;23832;43.216;27.946;2023-04-25T07:25:33;99980.63;;;26.56;48.07
38022;BME280;23832;43.216;27.946;2023-04-25T07:27:35;99980.94;;;26.17;48.63
38022;BME280;23832;43.216;27.946;2023-04-25T07:29:40;99979.69;;;26.47;48.10
38022;BME280;23832;43.216;27.946;2023-04-25T07:31:51;99982.59;;;26.13;47.36
38022;BME280;23832;43.216;27.946;2023-04-25T07:33:53;99968.06;;;26.28;47.43
38022;BME280;23832;43.216;27.946;2023-04-25T07:35:55;99959.06;;;25.95;48.04
38022;BME280;23832;43.216;27.946;2023-04-25T07:37:58;99965.16;;;26.43;46.49
38022;BME280;23832;43.216;27.946;2023-04-25T07:40:00;99959.28;;;27.61;44.58
38022;BME280;23832;43.216;27.946;2023-04-25T07:42:01;99957.53;;;26.97;45.75
38022;BME280;23832;43.216;27.946;2023-04-25T07:44:03;99951.69;;;28.13;44.20
38022;BME280;23832;43.216;27.946;2023-04-25T07:46:05;99957.78;;;28.19;43.99
38022;BME280;23832;43.216;27.946;2023-04-25T07:48:07;99956.03;;;28.59;42.57
38022;BME280;23832;43.216;27.946;2023-04-25T07:50:09;99955.34;;;28.53;43.43
38022;BME280;23832;43.216;27.946;2023-04-25T07:52:11;99955.41;;;28.62;42.19
38022;BME280;23832;43.216;27.946;2023-04-25T07:54:15;99950.09;;;28.57;42.31
38022;BME280;23832;43.216;27.946;2023-04-25T07:56:17;99963.59;;;27.35;43.63
38022;BME280;23832;43.216;27.946;2023-04-25T07:58:19;99954.59;;;26.93;44.13
38022;BME280;23832;43.216;27.946;2023-04-25T08:00:22;99943.94;;;26.50;44.46
38022;BME280;23832;43.216;27.946;2023-04-25T08:02:23;99950.38;;;25.07;47.07
38022;BME280;23832;43.216;27.946;2023-04-25T08:04:28;99951.19;;;25.08;47.48
38022;BME280;23832;43.216;27.946;2023-04-25T08:06:30;99954.41;;;23.97;50.37
38022;BME280;23832;43.216;27.946;2023-04-25T08:08:32;99955.97;;;24.09;51.44
38022;BME280;23832;43.216;27.946;2023-04-25T08:10:35;99953.59;;;23.22;53.30
38022;BME280;23832;43.216;27.946;2023-04-25T08:12:39;99958.22;;;23.01;54.10
38022;BME280;23832;43.216;27.946;2023-04-25T08:14:41;99966.66;;;23.69;52.60
38022;BME280;23832;43.216;27.946;2023-04-25T08:16:42;99966.25;;;23.21;54.65
38022;BME280;23832;43.216;27.946;2023-04-25T08:18:45;99975.16;;;23.02;55.17
38022;BME280;23832;43.216;27.946;2023-04-25T08:20:47;99979.69;;;23.16;55.38
38022;BME280;23832;43.216;27.946;2023-04-25T08:22:48;99984.31;;;23.01;56.26
38022;BME280;23832;43.216;27.946;2023-04-25T08:24:50;99974.06;;;23.03;56.97
38022;BME280;23832;43.216;27.946;2023-04-25T08:26:54;99984.50;;;22.43;58.25
38022;BME280;23832;43.216;27.946;2023-04-25T08:28:56;99974.34;;;21.67;62.10
38022;BME280;23832;43.216;27.946;2023-04-25T08:30:58;99971.97;;;21.29;68.21
38022;BME280;23832;43.216;27.946;2023-04-25T08:33:00;99974.34;;;21.72;65.70
38022;BME280;23832;43.216;27.946;2023-04-25T08:35:02;99974.84;;;21.59;66.28
38022;BME280;23832;43.216;27.946;2023-04-25T08:37:05;99969.78;;;21.68;66.35
38022;BME280;23832;43.216;27.946;2023-04-25T08:39:08;99969.28;;;21.76;65.20
38022;BME280;23832;43.216;27.946;2023-04-25T08:41:10;99972.97;;;21.65;67.00
38022;BME280;23832;43.216;27.946;2023-04-25T08:43:14;99969.13;;;22.08;63.63
38022;BME280;23832;43.216;27.946;2023-04-25T08:45:16;99974.88;;;22.47;62.06
38022;BME280;23832;43.216;27.946;2023-04-25T08:47:18;99961.94;;;22.54;61.51
38022;BME280;23832;43.216;27.946;2023-04-25T08:49:22;99965.66;;;22.07;63.60
38022;BME280;23832;43.216;27.946;2023-04-25T08:51:24;99976.13;;;22.19;62.65
38022;BME280;23832;43.216;27.946;2023-04-25T08:53:28;99959.97;;;22.04;63.47
38022;BME280;23832;43.216;27.946;2023-04-25T08:55:30;99967.59;;;22.32;61.98
38022;BME280;23832;43.216;27.946;2023-04-25T08:57:33;99963.00;;;22.23;62.79
38022;BME280;23832;43.216;27.946;2023-04-25T08:59:36;99965.69;;;22.33;61.13
38022;BME280;23832;43.216;27.946;2023-04-25T09:01:41;99970.25;;;22.22;59.45
38022;BME280;23832;43.216;27.946;2023-04-25T09:03:42;99970.94;;;21.87;60.25
38022;BME280;23832;43.216;27.946;2023-04-25T09:05:45;99968.28;;;21.97;59.13
38022;BME280;23832;43.216;27.946;2023-04-25T09:07:46;99975.09;;;22.25;58.35
38022;BME280;23832;43.216;27.946;2023-04-25T09:09:48;99977.19;;;22.08;58.30
38022;BME280;23832;43.216;27.946;2023-04-25T09:11:51;99970.25;;;22.12;57.26
38022;BME280;23832;43.216;27.946;2023-04-25T09:14:11;99966.34;;;21.77;58.88
38022;BME280;23832;43.216;27.946;2023-04-25T09:16:15;99957.47;;;21.24;59.66
38022;BME280;23832;43.216;27.946;2023-04-25T09:18:23;99959.81;;;21.16;61.18
38022;BME280;23832;43.216;27.946;2023-04-25T09:20:27;99960.31;;;21.08;62.12
38022;BME280;23832;43.216;27.946;2023-04-25T09:22:29;99962.72;;;21.04;63.20
38022;BME280;23832;43.216;27.946;2023-04-25T09:24:35;99955.66;;;21.30;61.72
38022;BME280;23832;43.216;27.946;2023-04-25T09:26:37;99949.81;;;21.43;60.99
38022;BME280;23832;43.216;27.946;2023-04-25T09:28:40;99954.63;;;20.99;62.63
38022;BME280;23832;43.216;27.946;2023-04-25T09:30:43;99951.16;;;21.41;61.15
38022;BME280;23832;43.216;27.946;2023-04-25T09:32:49;99950.31;;;21.30;60.52
38022;BME280;23832;43.216;27.946;2023-04-25T09:34:51;99946.09;;;21.49;59.96
38022;BME280;23832;43.216;27.946;2023-04-25T09:36:54;99945.03;;;21.50;60.61
38022;BME280;23832;43.216;27.946;2023-04-25T09:38:56;99941.09;;;21.73;59.45
38022;BME280;23832;43.216;27.946;2023-04-25T09:41:01;99929.09;;;22.01;58.83
38022;BME280;23832;43.216;27.946;2023-04-25T09:43:03;99936.31;;;21.86;59.16
38022;BME280;23832;43.216;27.946;2023-04-25T09:45:10;99935.28;;;21.97;59.25
38022;BME280;23832;43.216;27.946;2023-04-25T09:47:16;99930.41;;;21.89;59.85
38022;BME280;23832;43.216;27.946;2023-04-25T09:49:19;99924.84;;;22.10;59.00
38022;BME280;23832;43.216;27.946;2023-04-25T09:51:22;99918.16;;;22.18;58.29
38022;BME280;23832;43.216;27.946;2023-04-25T09:53:31;99921.91;;;22.37;57.96
38022;BME280;23832;43.216;27.946;2023-04-25T09:55:34;99929.47;;;22.56;57.07
38022;BME280;23832;43.216;27.946;2023-04-25T09:57:36;99926.19;;;22.08;57.93
38022;BME280;23832;43.216;27.946;2023-04-25T09:59:42;99921.41;;;22.56;57.33
38022;BME280;23832;43.216;27.946;2023-04-25T10:01:44;99913.59;;;22.90;56.10
38022;BME280;23832;43.216;27.946;2023-04-25T10:03:46;99918.72;;;22.66;57.06
38022;BME280;23832;43.216;27.946;2023-04-25T10:05:52;99916.81;;;22.77;57.79
38022;BME280;23832;43.216;27.946;2023-04-25T10:07:55;99905.91;;;23.43;55.80
38022;BME280;23832;43.216;27.946;2023-04-25T10:09:58;99898.94;;;24.01;54.23
38022;BME280;23832;43.216;27.946;2023-04-25T10:12:03;99899.13;;;24.78;52.40
38022;BME280;23832;43.216;27.946;2023-04-25T10:14:13;99898.66;;;24.42;51.04
38022;BME280;23832;43.216;27.946;2023-04-25T10:16:17;99900.00;;;24.98;51.35
38022;BME280;23832;43.216;27.946;2023-04-25T10:18:19;99892.31;;;25.15;50.69
38022;BME280;23832;43.216;27.946;2023-04-25T10:20:21;99893.91;;;25.16;50.44
38022;BME280;23832;43.216;27.946;2023-04-25T10:22:26;99899.06;;;25.79;47.95
38022;BME280;23832;43.216;27.946;2023-04-25T10:24:30;99895.72;;;26.57;47.24
38022;BME280;23832;43.216;27.946;2023-04-25T10:26:32;99895.03;;;26.33;47.20
38022;BME280;23832;43.216;27.946;2023-04-25T10:30:57;99886.88;;;28.48;43.29
38022;BME280;23832;43.216;27.946;2023-04-25T10:32:59;99887.50;;;28.98;42.09